createdAt,value
2023-04-16T00:03:24.458Z,99.43
2023-04-16T00:18:30.505Z,99.05
2023-04-16T00:33:36.250Z,98.97
2023-04-16T00:48:43.764Z,99.25
2023-04-16T01:03:50.500Z,99.92
2023-04-16T01:18:56.166Z,100.20
2023-04-16T01:34:01.838Z,101.20
2023-04-16T01:49:08.216Z,102.78
2023-04-16T02:04:14.329Z,102.99
2023-04-16T02:19:19.871Z,102.86
2023-04-16T02:34:25.960Z,102.71
2023-04-16T02:49:32.159Z,102.54
2023-04-16T03:04:37.868Z,102.31
2023-04-16T03:19:43.509Z,103.45
2023-04-16T03:34:49.178Z,103.97
2023-04-16T03:49:55.068Z,104.66
2023-04-16T04:05:00.850Z,104.86
2023-04-16T04:20:07.672Z,105.25
2023-04-16T04:35:13.596Z,104.76
2023-04-16T04:50:19.303Z,105.01
2023-04-16T05:05:25.094Z,104.18
2023-04-16T05:20:31.141Z,104.98
2023-04-16T05:35:36.845Z,103.66
2023-04-16T05:50:42.701Z,103.02
2023-04-16T06:05:48.237Z,102.73
2023-04-16T06:20:53.697Z,102.57
2023-04-16T06:35:59.185Z,102.12
2023-04-16T06:51:04.957Z,101.23
2023-04-16T07:06:10.680Z,100.95
2023-04-16T07:21:16.445Z,99.90
2023-04-16T07:36:22.002Z,99.71
2023-04-16T07:51:27.805Z,100.42
2023-04-16T08:06:33.597Z,100.06
2023-04-16T08:21:39.216Z,100.54
2023-04-16T08:36:44.876Z,99.35
2023-04-16T08:51:53.499Z,100.01
2023-04-16T09:07:01.518Z,98.88
2023-04-16T09:22:06.983Z,101.12
2023-04-16T09:37:19.461Z,102.27
2023-04-16T09:52:26.304Z,103.70
2023-04-16T10:07:35.055Z,104.26
2023-04-16T10:22:41.054Z,105.53
2023-04-16T10:37:47.705Z,105.25
2023-04-16T10:53:19.644Z,104.24
2023-04-16T11:08:26.297Z,104.02
2023-04-16T11:23:32.116Z,103.80
2023-04-16T11:38:41.283Z,103.67
2023-04-16T11:54:04.585Z,104.07
2023-04-16T12:09:28.769Z,103.84
2023-04-16T12:24:38.224Z,103.38
2023-04-16T12:39:43.689Z,100.94
2023-04-16T12:54:49.167Z,101.05
2023-04-16T13:09:54.892Z,100.47
2023-04-16T13:25:00.419Z,98.67
2023-04-16T13:40:06.801Z,97.80
2023-04-16T13:55:14.271Z,97.74
2023-04-16T14:10:20.247Z,97.68
2023-04-16T14:25:25.834Z,97.83
2023-04-16T14:40:31.511Z,96.05
2023-04-16T14:55:37.040Z,96.75
2023-04-16T15:10:43.715Z,97.16
2023-04-16T15:25:49.206Z,95.61
2023-04-16T15:40:54.827Z,93.32
2023-04-16T15:56:00.425Z,94.27
2023-04-16T16:11:06.360Z,94.34
2023-04-16T16:26:11.916Z,95.18
2023-04-16T16:41:17.545Z,95.82
2023-04-16T16:56:23.201Z,96.64
2023-04-16T17:11:29.630Z,99.70
2023-04-16T17:26:35.563Z,102.71
2023-04-16T17:41:41.127Z,103.05
2023-04-16T17:56:47.043Z,102.97
2023-04-16T18:11:52.650Z,103.73
2023-04-16T18:26:58.281Z,103.70
2023-04-16T18:42:04.220Z,104.52
2023-04-16T18:57:09.759Z,105.48
2023-04-16T19:12:15.318Z,106.64
2023-04-16T19:27:20.744Z,105.66
2023-04-16T19:42:27.563Z,106.17
2023-04-16T19:57:33.266Z,105.91
2023-04-16T20:12:39.319Z,105.60
2023-04-16T20:27:45.028Z,105.08
2023-04-16T20:42:52.375Z,106.29
2023-04-16T20:57:58.155Z,106.51
2023-04-16T21:13:03.843Z,106.48
2023-04-16T21:28:09.427Z,106.44
2023-04-16T21:43:15.045Z,106.82
2023-04-16T21:58:20.669Z,106.97
2023-04-16T22:13:26.814Z,107.21
2023-04-16T22:28:32.615Z,107.26
2023-04-16T22:43:38.450Z,106.98
2023-04-16T22:58:43.962Z,106.79
2023-04-16T23:13:49.630Z,107.27
2023-04-16T23:28:55.258Z,107.18
2023-04-16T23:44:01.046Z,107.84
2023-04-16T23:59:06.492Z,108.17
